createdAt,value
2023-03-29T00:02:30.326Z,1.92
2023-03-29T00:05:02.103Z,2.17
2023-03-29T00:07:33.292Z,2.47
2023-03-29T00:10:04.718Z,2.63
2023-03-29T00:12:32.027Z,2.30
2023-03-29T00:14:58.996Z,2.42
2023-03-29T00:17:26.325Z,2.70
2023-03-29T00:19:53.350Z,3.03
2023-03-29T00:22:21.363Z,2.05
2023-03-29T00:24:49.227Z,2.03
2023-03-29T00:27:16.896Z,2.10
2023-03-29T00:29:43.972Z,2.47
2023-03-29T00:32:11.765Z,1.95
2023-03-29T00:34:39.008Z,2.10
2023-03-29T00:37:09.375Z,2.10
2023-03-29T00:39:36.948Z,2.22
2023-03-29T00:42:04.034Z,2.88
2023-03-29T00:44:56.346Z,2.25
2023-03-29T00:47:35.325Z,2.30
2023-03-29T00:50:45.522Z,2.20
2023-03-29T00:53:26.200Z,2.55
2023-03-29T00:56:10.085Z,3.17
2023-03-29T00:59:07.220Z,2.80
2023-03-29T01:01:48.254Z,2.15
2023-03-29T01:04:31.009Z,2.70
2023-03-29T01:07:24.507Z,2.15
2023-03-29T01:10:09.053Z,2.53
2023-03-29T01:12:51.927Z,2.95
2023-03-29T01:15:25.133Z,2.15
2023-03-29T01:17:53.829Z,2.28
2023-03-29T01:21:07.184Z,2.05
2023-03-29T01:23:58.318Z,2.50
2023-03-29T01:26:34.027Z,2.40
2023-03-29T01:29:10.037Z,2.30
2023-03-29T01:31:52.764Z,2.25
2023-03-29T01:34:33.519Z,2.60
2023-03-29T01:37:30.495Z,2.30
2023-03-29T01:39:57.472Z,3.50
2023-03-29T01:42:58.019Z,2.03
2023-03-29T01:46:05.060Z,1.88
2023-03-29T01:51:38.871Z,2.10
2023-03-29T01:54:28.952Z,1.95
2023-03-29T01:56:58.577Z,2.25
2023-03-29T01:59:32.421Z,1.98
2023-03-29T02:02:03.152Z,2.58
2023-03-29T02:04:35.784Z,2.20
2023-03-29T02:07:07.371Z,1.77
2023-03-29T02:09:37.287Z,2.20
2023-03-29T02:12:06.306Z,2.45
2023-03-29T02:14:33.391Z,2.50
2023-03-29T02:17:24.182Z,2.80
2023-03-29T02:20:15.172Z,2.10
2023-03-29T02:23:04.657Z,2.53
2023-03-29T02:25:32.634Z,2.20
2023-03-29T02:28:01.213Z,2.00
2023-03-29T02:30:53.521Z,1.77
2023-03-29T02:34:02.910Z,2.72
2023-03-29T02:36:46.642Z,1.88
2023-03-29T02:39:16.199Z,1.90
2023-03-29T02:41:47.251Z,2.30
2023-03-29T02:44:19.406Z,1.80
2023-03-29T02:46:50.873Z,2.28
2023-03-29T02:49:18.452Z,2.60
2023-03-29T02:51:49.214Z,2.08
2023-03-29T02:54:21.095Z,2.55
2023-03-29T02:56:58.588Z,2.50
2023-03-29T02:59:26.444Z,2.35
2023-03-29T03:01:53.663Z,2.17
2023-03-29T03:04:21.261Z,2.90
2023-03-29T03:06:49.115Z,2.65
2023-03-29T03:09:16.122Z,3.08
2023-03-29T03:11:46.201Z,2.47
2023-03-29T03:14:13.287Z,2.78
2023-03-29T03:16:40.397Z,3.67
2023-03-29T03:19:07.673Z,3.58
2023-03-29T03:21:35.147Z,3.35
2023-03-29T03:24:02.177Z,3.55
2023-03-29T03:26:32.654Z,3.95
2023-03-29T03:29:00.907Z,4.10
2023-03-29T03:32:04.394Z,4.03
2023-03-29T03:34:51.638Z,3.47
2023-03-29T03:37:20.019Z,3.63
2023-03-29T03:39:46.960Z,3.90
2023-03-29T03:42:14.642Z,4.28
2023-03-29T03:44:44.951Z,3.47
2023-03-29T03:47:29.482Z,3.10
2023-03-29T03:50:01.798Z,3.95
2023-03-29T03:52:29.291Z,3.67
2023-03-29T03:54:56.498Z,4.03
2023-03-29T03:57:47.997Z,4.45
2023-03-29T04:00:21.246Z,4.40
2023-03-29T04:03:02.289Z,4.47
2023-03-29T04:05:29.610Z,4.72
2023-03-29T04:07:56.728Z,4.18
2023-03-29T04:10:53.251Z,4.30
2023-03-29T04:13:27.189Z,4.35
2023-03-29T04:16:12.960Z,4.43
2023-03-29T04:18:40.726Z,4.70
2023-03-29T04:21:08.248Z,4.28
2023-03-29T04:23:36.438Z,4.57
2023-03-29T04:26:03.617Z,3.88
2023-03-29T04:28:42.543Z,5.00
2023-03-29T04:31:15.265Z,4.32
2023-03-29T04:33:49.678Z,4.20
2023-03-29T04:36:17.488Z,3.92
2023-03-29T04:38:47.351Z,3.90
2023-03-29T04:41:15.751Z,4.50
2023-03-29T04:43:52.017Z,3.38
2023-03-29T04:46:26.594Z,3.88
2023-03-29T04:49:12.910Z,4.60
2023-03-29T04:51:44.178Z,4.50
2023-03-29T04:54:12.910Z,4.38
2023-03-29T04:56:57.270Z,3.42
2023-03-29T04:59:35.156Z,4.07
2023-03-29T05:02:07.540Z,3.30
2023-03-29T05:04:36.598Z,4.05
2023-03-29T05:07:10.006Z,3.58
2023-03-29T05:09:37.474Z,3.67
2023-03-29T05:12:05.439Z,3.45
2023-03-29T05:14:45.775Z,3.30
2023-03-29T05:17:13.171Z,4.00
2023-03-29T05:19:40.755Z,4.13
2023-03-29T05:22:08.982Z,3.28
2023-03-29T05:24:37.636Z,3.83
2023-03-29T05:27:13.608Z,3.97
2023-03-29T05:29:41.900Z,3.83
2023-03-29T05:32:23.042Z,4.00
2023-03-29T05:34:50.790Z,3.65
2023-03-29T05:37:18.887Z,4.25
2023-03-29T05:39:50.817Z,3.88
2023-03-29T05:42:22.684Z,3.28
2023-03-29T05:44:56.827Z,3.58
2023-03-29T05:47:24.822Z,3.55
2023-03-29T05:49:52.731Z,3.38
2023-03-29T05:52:24.607Z,3.67
2023-03-29T05:54:51.971Z,3.15
2023-03-29T05:57:21.596Z,3.60
2023-03-29T05:59:48.678Z,3.30
2023-03-29T06:02:16.923Z,3.15
2023-03-29T06:04:48.887Z,3.20
2023-03-29T06:07:24.993Z,2.42
2023-03-29T06:10:21.355Z,2.83
2023-03-29T06:12:54.577Z,3.25
2023-03-29T06:15:25.197Z,3.03
2023-03-29T06:18:04.631Z,2.97
2023-03-29T06:20:33.360Z,3.25
2023-03-29T06:23:07.989Z,2.85
2023-03-29T06:25:35.346Z,2.60
2023-03-29T06:28:03.873Z,3.47
2023-03-29T06:30:31.237Z,3.00
2023-03-29T06:33:01.099Z,3.10
2023-03-29T06:35:54.724Z,2.50
2023-03-29T06:38:28.505Z,3.05
2023-03-29T06:41:21.582Z,2.78
2023-03-29T06:43:55.118Z,3.20
2023-03-29T06:46:25.149Z,3.60
2023-03-29T06:49:04.638Z,3.30
2023-03-29T06:51:43.924Z,3.03
2023-03-29T06:54:11.700Z,3.47
2023-03-29T06:56:48.872Z,3.03
2023-03-29T06:59:18.129Z,3.30
2023-03-29T07:02:03.934Z,3.53
2023-03-29T07:05:01.436Z,2.80
2023-03-29T07:07:53.435Z,2.97
2023-03-29T07:10:32.952Z,3.47
2023-03-29T07:13:18.997Z,3.00
2023-03-29T07:15:48.062Z,3.60
2023-03-29T07:18:19.935Z,3.38
2023-03-29T07:20:48.567Z,2.97
2023-03-29T07:23:15.819Z,3.00
2023-03-29T07:25:44.741Z,3.60
2023-03-29T07:28:11.836Z,3.50
2023-03-29T07:30:39.613Z,3.40
2023-03-29T07:33:12.588Z,3.80
2023-03-29T07:35:47.846Z,3.63
2023-03-29T07:38:15.696Z,4.90
2023-03-29T07:40:48.190Z,4.65
2023-03-29T07:43:34.484Z,4.07
2023-03-29T07:46:06.954Z,3.85
2023-03-29T07:48:37.240Z,4.38
2023-03-29T07:51:07.717Z,4.38
2023-03-29T07:53:43.706Z,3.78
2023-03-29T07:56:29.107Z,3.55
2023-03-29T07:59:11.858Z,4.20
2023-03-29T08:01:41.462Z,3.60
2023-03-29T08:04:31.920Z,3.45
2023-03-29T08:07:33.875Z,3.55
2023-03-29T08:10:27.962Z,3.72
2023-03-29T08:12:55.283Z,3.65
2023-03-29T08:15:30.755Z,3.20
2023-03-29T08:17:58.000Z,3.35
2023-03-29T08:20:26.581Z,3.35
2023-03-29T08:22:59.846Z,2.90
2023-03-29T08:25:56.684Z,4.47
2023-03-29T08:28:24.403Z,3.45
2023-03-29T08:30:52.871Z,4.28
2023-03-29T08:33:20.172Z,3.97
2023-03-29T08:35:55.011Z,3.88
2023-03-29T08:38:27.272Z,3.78
2023-03-29T08:40:55.146Z,4.18
2023-03-29T08:43:46.480Z,4.18
2023-03-29T08:46:35.192Z,4.32
2023-03-29T08:49:19.060Z,4.82
2023-03-29T08:51:53.068Z,4.47
2023-03-29T08:54:34.899Z,4.60
2023-03-29T08:57:32.004Z,5.45
2023-03-29T09:00:10.655Z,4.72
2023-03-29T09:02:41.549Z,4.95
2023-03-29T09:05:27.464Z,4.15
2023-03-29T09:08:14.293Z,4.28
2023-03-29T09:10:47.403Z,5.30
2023-03-29T09:13:21.475Z,5.43
2023-03-29T09:16:29.891Z,4.85
2023-03-29T09:19:25.980Z,4.55
2023-03-29T09:22:05.758Z,5.78
2023-03-29T09:25:13.382Z,5.15
2023-03-29T09:27:59.580Z,5.43
2023-03-29T09:31:12.571Z,5.43
2023-03-29T09:33:49.716Z,4.90
2023-03-29T09:36:38.559Z,5.45
2023-03-29T09:41:42.299Z,5.63
2023-03-29T09:46:58.525Z,6.38
2023-03-29T09:49:36.753Z,5.55
2023-03-29T09:52:13.349Z,5.70
2023-03-29T09:54:44.691Z,5.78
2023-03-29T09:57:46.178Z,6.20
2023-03-29T10:00:16.993Z,5.80
2023-03-29T10:02:52.779Z,4.97
2023-03-29T10:05:26.471Z,6.72
2023-03-29T10:08:01.240Z,5.43
2023-03-29T10:10:34.777Z,5.05
2023-03-29T10:13:07.075Z,4.82
2023-03-29T10:15:34.245Z,5.57
2023-03-29T10:18:13.134Z,4.50
2023-03-29T10:20:41.142Z,5.25
2023-03-29T10:23:17.391Z,4.68
2023-03-29T10:25:45.555Z,4.75
2023-03-29T10:28:17.846Z,5.10
2023-03-29T10:30:53.607Z,4.65
2023-03-29T10:35:51.746Z,4.93
2023-03-29T10:38:21.600Z,4.78
2023-03-29T10:40:52.339Z,6.82
2023-03-29T10:43:39.192Z,6.57
2023-03-29T10:46:19.645Z,6.78
2023-03-29T10:48:57.399Z,7.55
2023-03-29T10:51:30.200Z,7.45
2023-03-29T10:53:59.250Z,7.32
2023-03-29T10:56:59.277Z,6.45
2023-03-29T10:59:31.595Z,6.03
2023-03-29T11:02:07.640Z,6.65
2023-03-29T11:05:10.959Z,6.15
2023-03-29T11:08:15.101Z,6.05
2023-03-29T11:10:49.766Z,7.55
2023-03-29T11:13:40.683Z,6.63
2023-03-29T11:16:42.151Z,6.72
2023-03-29T11:19:36.434Z,6.53
2023-03-29T11:22:11.461Z,6.63
2023-03-29T11:24:47.802Z,7.28
2023-03-29T11:27:47.457Z,6.95
2023-03-29T11:30:24.042Z,6.55
2023-03-29T11:33:20.599Z,6.82
2023-03-29T11:36:09.340Z,7.25
2023-03-29T11:39:15.972Z,6.22
2023-03-29T11:41:47.508Z,6.63
2023-03-29T11:44:34.444Z,7.00
2023-03-29T11:47:13.114Z,7.28
2023-03-29T11:49:58.273Z,6.63
2023-03-29T11:52:41.391Z,6.50
2023-03-29T11:55:26.477Z,6.53
2023-03-29T11:58:01.082Z,6.33
2023-03-29T12:00:35.029Z,5.07
2023-03-29T12:03:46.239Z,5.32
2023-03-29T12:06:19.602Z,4.75
2023-03-29T12:08:54.914Z,4.90
2023-03-29T12:11:40.752Z,5.25
2023-03-29T12:14:49.560Z,5.32
2023-03-29T12:17:27.487Z,5.70
2023-03-29T12:20:08.266Z,5.20
2023-03-29T12:22:40.462Z,4.75
2023-03-29T12:25:16.771Z,7.53
2023-03-29T12:28:08.936Z,6.35
2023-03-29T12:30:57.840Z,5.20
2023-03-29T12:33:33.450Z,6.03
2023-03-29T12:36:45.299Z,5.93
2023-03-29T12:39:32.893Z,5.95
2023-03-29T12:42:21.798Z,6.65
2023-03-29T12:45:22.173Z,7.05
2023-03-29T12:47:51.500Z,6.80
2023-03-29T12:50:33.472Z,6.30
2023-03-29T12:53:13.202Z,6.88
2023-03-29T12:55:46.247Z,6.47
2023-03-29T12:58:53.015Z,6.43
2023-03-29T13:01:34.815Z,6.28
2023-03-29T13:04:01.931Z,7.63
2023-03-29T13:06:33.128Z,6.15
2023-03-29T13:09:23.266Z,7.05
2023-03-29T13:12:04.150Z,6.63
2023-03-29T13:14:37.750Z,7.15
2023-03-29T13:17:18.747Z,7.00
2023-03-29T13:20:12.506Z,7.22
2023-03-29T13:23:07.287Z,6.32
2023-03-29T13:26:21.521Z,6.18
2023-03-29T13:29:58.784Z,5.93
2023-03-29T13:33:02.722Z,5.68
2023-03-29T13:36:08.748Z,5.55
2023-03-29T13:38:52.809Z,5.83
2023-03-29T13:41:38.472Z,6.38
2023-03-29T13:44:27.269Z,6.13
2023-03-29T13:47:32.479Z,6.07
2023-03-29T13:50:07.708Z,6.57
2023-03-29T13:52:41.721Z,6.40
2023-03-29T13:55:26.216Z,6.85
2023-03-29T13:58:06.781Z,6.30
2023-03-29T14:00:46.266Z,6.50
2023-03-29T14:03:17.723Z,7.65
2023-03-29T14:05:51.595Z,6.70
2023-03-29T14:08:27.921Z,5.95
2023-03-29T14:10:55.894Z,6.43
2023-03-29T14:13:25.451Z,7.13
2023-03-29T14:16:02.882Z,5.93
2023-03-29T14:18:41.109Z,6.75
2023-03-29T14:21:12.162Z,6.80
2023-03-29T14:23:42.122Z,6.72
2023-03-29T14:26:16.376Z,6.03
2023-03-29T14:28:56.817Z,6.47
2023-03-29T14:31:32.925Z,6.53
2023-03-29T14:34:03.427Z,6.53
2023-03-29T14:36:34.204Z,6.85
2023-03-29T14:39:20.723Z,6.25
2023-03-29T14:41:57.025Z,6.97
2023-03-29T14:44:29.470Z,6.30
2023-03-29T14:46:56.957Z,7.90
2023-03-29T14:49:24.658Z,6.28
2023-03-29T14:51:53.226Z,6.05
2023-03-29T14:54:29.350Z,6.85
2023-03-29T14:56:56.555Z,6.25
2023-03-29T14:59:41.897Z,6.85
2023-03-29T15:02:32.125Z,6.50
2023-03-29T15:05:07.523Z,6.10
2023-03-29T15:07:37.271Z,5.75
2023-03-29T15:10:06.638Z,5.88
2023-03-29T15:12:34.619Z,5.85
2023-03-29T15:15:03.934Z,6.20
2023-03-29T15:17:50.514Z,6.22
2023-03-29T15:20:25.170Z,6.55
2023-03-29T15:23:04.626Z,6.10
2023-03-29T15:25:38.211Z,5.03
2023-03-29T15:28:06.335Z,5.50
2023-03-29T15:30:46.206Z,5.75
2023-03-29T15:33:22.992Z,5.97
2023-03-29T15:35:53.786Z,5.38
2023-03-29T15:38:27.528Z,5.50
2023-03-29T15:40:57.601Z,4.97
2023-03-29T15:43:25.719Z,5.25
2023-03-29T15:45:52.853Z,5.60
2023-03-29T15:48:27.081Z,4.85
2023-03-29T15:50:54.796Z,5.32
2023-03-29T15:53:23.852Z,5.90
2023-03-29T15:55:54.317Z,6.45
2023-03-29T15:58:31.101Z,4.25
2023-03-29T16:01:11.498Z,4.45
2023-03-29T16:03:41.804Z,4.47
2023-03-29T16:06:12.538Z,4.40
2023-03-29T16:08:40.842Z,3.65
2023-03-29T16:11:08.134Z,4.03
2023-03-29T16:13:35.422Z,4.47
2023-03-29T16:16:02.855Z,4.30
2023-03-29T16:18:30.424Z,4.45
2023-03-29T16:20:57.655Z,4.03
2023-03-29T16:23:27.655Z,4.10
2023-03-29T16:25:54.688Z,3.90
2023-03-29T16:28:22.542Z,4.13
2023-03-29T16:30:49.752Z,3.78
2023-03-29T16:33:16.887Z,5.93
2023-03-29T16:35:43.971Z,4.28
2023-03-29T16:38:11.238Z,4.03
2023-03-29T16:40:38.480Z,4.18
2023-03-29T16:43:06.025Z,3.97
2023-03-29T16:45:33.339Z,3.50
2023-03-29T16:48:00.481Z,3.13
2023-03-29T16:50:27.820Z,3.88
2023-03-29T16:52:55.441Z,4.43
2023-03-29T16:55:22.936Z,2.80
2023-03-29T16:57:50.959Z,3.45
2023-03-29T17:00:20.174Z,3.38
2023-03-29T17:02:50.725Z,3.03
2023-03-29T17:05:18.788Z,4.15
2023-03-29T17:07:46.216Z,3.90
2023-03-29T17:10:14.008Z,4.40
2023-03-29T17:12:41.079Z,4.00
2023-03-29T17:15:09.311Z,2.25
2023-03-29T17:17:37.835Z,2.88
2023-03-29T17:20:08.714Z,2.60
2023-03-29T17:22:36.235Z,2.60
2023-03-29T17:25:03.855Z,2.67
2023-03-29T17:27:30.960Z,2.90
2023-03-29T17:29:58.063Z,3.38
2023-03-29T17:32:25.717Z,2.58
2023-03-29T17:34:53.357Z,2.85
2023-03-29T17:37:23.978Z,3.40
2023-03-29T17:39:51.356Z,3.58
2023-03-29T17:42:18.354Z,3.17
2023-03-29T17:44:45.555Z,3.22
2023-03-29T17:47:12.685Z,2.72
2023-03-29T17:49:39.996Z,2.80
2023-03-29T17:52:07.220Z,2.80
2023-03-29T17:54:34.265Z,2.72
2023-03-29T17:57:01.582Z,2.78
2023-03-29T17:59:28.719Z,4.13
2023-03-29T18:01:55.856Z,3.03
2023-03-29T18:04:22.865Z,2.83
2023-03-29T18:06:49.855Z,2.67
2023-03-29T18:09:16.901Z,3.40
2023-03-29T18:11:43.930Z,2.80
2023-03-29T18:14:11.362Z,3.08
2023-03-29T18:16:38.496Z,3.78
2023-03-29T18:19:05.607Z,2.90
2023-03-29T18:21:32.758Z,3.40
2023-03-29T18:23:59.880Z,3.85
2023-03-29T18:26:28.663Z,4.50
2023-03-29T18:28:56.117Z,3.47
2023-03-29T18:31:23.339Z,3.92
2023-03-29T18:33:50.731Z,4.15
2023-03-29T18:36:17.925Z,3.63
2023-03-29T18:38:45.065Z,3.53
2023-03-29T18:41:14.104Z,3.75
2023-03-29T18:43:42.988Z,3.53
2023-03-29T18:46:10.083Z,3.75
2023-03-29T18:48:39.002Z,3.83
2023-03-29T18:51:08.721Z,3.60
2023-03-29T18:53:37.233Z,4.07
2023-03-29T18:56:04.995Z,3.97
2023-03-29T18:58:32.596Z,3.63
2023-03-29T19:01:05.214Z,3.10
2023-03-29T19:03:34.761Z,4.00
2023-03-29T19:06:03.421Z,6.07
2023-03-29T19:08:32.403Z,6.00
2023-03-29T19:11:07.126Z,5.30
2023-03-29T19:13:35.456Z,4.90
2023-03-29T19:16:03.794Z,4.70
2023-03-29T19:18:31.498Z,4.22
2023-03-29T19:20:58.605Z,5.80
2023-03-29T19:23:28.183Z,5.20
2023-03-29T19:25:57.944Z,4.80
2023-03-29T19:28:25.966Z,5.00
2023-03-29T19:30:53.597Z,5.05
2023-03-29T19:33:20.862Z,5.20
2023-03-29T19:35:51.453Z,4.88
2023-03-29T19:38:21.720Z,4.47
2023-03-29T19:40:51.565Z,4.28
2023-03-29T19:43:20.695Z,5.50
2023-03-29T19:45:50.108Z,9.85
2023-03-29T19:50:48.218Z,4.40
2023-03-29T19:53:15.260Z,4.13
2023-03-29T19:55:45.429Z,4.32
2023-03-29T19:58:13.325Z,5.22
2023-03-29T20:00:41.839Z,4.18
2023-03-29T20:03:09.882Z,4.13
2023-03-29T20:05:38.947Z,3.50
2023-03-29T20:08:07.434Z,4.38
2023-03-29T20:10:35.961Z,4.47
2023-03-29T20:13:03.210Z,3.88
2023-03-29T20:15:30.415Z,4.38
2023-03-29T20:17:59.629Z,3.80
2023-03-29T20:20:27.576Z,5.07
2023-03-29T20:22:58.278Z,4.35
2023-03-29T20:25:25.925Z,3.75
2023-03-29T20:27:53.343Z,3.90
2023-03-29T20:30:20.596Z,3.90
2023-03-29T20:32:47.672Z,4.97
2023-03-29T20:35:14.769Z,4.32
2023-03-29T20:37:41.896Z,4.80
2023-03-29T20:40:11.213Z,4.20
2023-03-29T20:42:38.699Z,4.55
2023-03-29T20:45:07.883Z,4.75
2023-03-29T20:47:42.384Z,4.30
2023-03-29T20:50:10.675Z,5.13
2023-03-29T20:52:37.676Z,5.10
2023-03-29T20:55:05.654Z,4.68
2023-03-29T20:57:32.746Z,4.00
2023-03-29T20:59:59.940Z,4.25
2023-03-29T21:02:27.364Z,4.35
2023-03-29T21:04:54.583Z,4.15
2023-03-29T21:07:21.748Z,4.93
2023-03-29T21:09:50.008Z,4.43
2023-03-29T21:12:17.468Z,3.80
2023-03-29T21:14:44.812Z,4.07
2023-03-29T21:17:11.866Z,3.97
2023-03-29T21:19:39.492Z,3.80
2023-03-29T21:22:06.712Z,3.80
2023-03-29T21:24:36.346Z,4.85
2023-03-29T21:27:03.381Z,5.18
2023-03-29T21:29:30.414Z,4.40
2023-03-29T21:31:57.530Z,4.82
2023-03-29T21:34:24.596Z,4.40
2023-03-29T21:36:51.669Z,4.53
2023-03-29T21:39:18.747Z,4.03
2023-03-29T21:41:45.823Z,4.63
2023-03-29T21:44:12.889Z,4.03
2023-03-29T21:46:39.982Z,4.38
2023-03-29T21:49:07.063Z,3.75
2023-03-29T21:51:33.997Z,3.83
2023-03-29T21:54:01.012Z,3.47
2023-03-29T21:56:28.899Z,4.22
2023-03-29T21:58:55.925Z,4.20
2023-03-29T22:01:22.986Z,3.50
2023-03-29T22:03:50.391Z,4.40
2023-03-29T22:06:17.639Z,3.78
2023-03-29T22:08:46.680Z,3.70
2023-03-29T22:11:16.322Z,4.82
2023-03-29T22:13:44.440Z,3.65
2023-03-29T22:16:18.946Z,4.07
2023-03-29T22:18:49.429Z,4.28
2023-03-29T22:21:22.597Z,3.55
2023-03-29T22:23:54.050Z,3.50
2023-03-29T22:26:24.814Z,3.95
2023-03-29T22:28:51.803Z,2.85
2023-03-29T22:31:21.169Z,3.63
2023-03-29T22:33:48.842Z,3.78
2023-03-29T22:36:25.302Z,3.78
2023-03-29T22:38:53.259Z,3.50
2023-03-29T22:41:26.076Z,3.53
2023-03-29T22:43:55.364Z,2.67
2023-03-29T22:46:23.383Z,3.65
2023-03-29T22:48:51.093Z,3.17
2023-03-29T22:51:18.455Z,3.03
2023-03-29T22:53:47.127Z,3.50
2023-03-29T22:56:16.005Z,2.95
2023-03-29T22:58:43.994Z,3.70
2023-03-29T23:01:11.389Z,4.30
2023-03-29T23:03:38.434Z,4.28
2023-03-29T23:06:06.228Z,3.25
2023-03-29T23:08:34.586Z,2.70
2023-03-29T23:11:02.743Z,3.65
2023-03-29T23:13:30.383Z,2.83
2023-03-29T23:16:00.743Z,3.25
2023-03-29T23:18:30.737Z,3.15
2023-03-29T23:21:00.296Z,2.72
2023-03-29T23:23:28.573Z,2.75
2023-03-29T23:25:56.508Z,2.55
2023-03-29T23:28:27.430Z,2.22
2023-03-29T23:31:03.798Z,2.70
2023-03-29T23:33:35.195Z,2.10
2023-03-29T23:36:06.004Z,2.30
2023-03-29T23:38:35.209Z,2.75
2023-03-29T23:41:05.544Z,3.35
2023-03-29T23:43:37.230Z,2.13
2023-03-29T23:46:07.808Z,2.63
2023-03-29T23:48:34.970Z,2.47
2023-03-29T23:51:03.010Z,2.42
2023-03-29T23:53:31.519Z,2.80
2023-03-29T23:56:01.382Z,2.60
2023-03-29T23:58:30.451Z,2.65
